Time;durP1;ratioP1;P1;durP2;ratioP2;P2;SDS_P1;SDS_P2;PMS_P1;PMS_P2;Temp;Humidity;BMP_temperature;BMP_pressure;BME280_temperature;BME280_humidity;BME280_pressure;Samples;Min_cycle;Max_cycle;Signal;HPM_P1;HPM_P2
2022/09/25 00:00:23;;;;;;;8.05;3.22;;;;;;;12.04;95.91;100006.44;4976069;28;20132;-81
2022/09/25 00:02:49;;;;;;;9.77;3.45;;;;;;;12.16;95.12;100008.31;4993376;28;20411;-80
2022/09/25 00:05:14;;;;;;;6.07;2.63;;;;;;;12.03;95.63;100001.31;4993393;28;20030;-81
2022/09/25 00:07:40;;;;;;;5.13;2.40;;;;;;;11.94;95.25;100000.69;4992730;28;20030;-81
2022/09/25 00:10:06;;;;;;;;;;;;;;;12.02;95.04;100007.91;4975897;28;20034;-80
2022/09/25 00:12:31;;;;;;;8.07;2.40;;;;;;;11.96;94.42;100001.94;4992943;28;20017;-80
2022/09/25 00:14:57;;;;;;;6.47;1.85;;;;;;;11.96;94.35;100001.94;4993343;28;20050;-81
2022/09/25 00:17:25;;;;;;;5.57;2.43;;;;;;;12.28;93.16;100002.81;4993037;28;20243;-81
2022/09/25 00:19:50;;;;;;;7.38;2.00;;;;;;;12.21;92.58;100007.28;4992869;28;20806;-81
2022/09/25 00:22:17;;;;;;;5.18;2.08;;;;;;;12.34;91.25;100006.09;4992520;28;20113;-80
2022/09/25 00:24:43;;;;;;;6.15;2.08;;;;;;;12.50;90.21;100003.38;4992887;28;20069;-80
2022/09/25 00:27:08;;;;;;;4.22;1.70;;;;;;;12.14;91.54;100010.63;4975404;28;20109;-81
2022/09/25 00:29:35;;;;;;;4.47;1.80;;;;;;;12.14;92.00;100007.09;4997007;28;20508;-80
2022/09/25 00:32:01;;;;;;;7.50;1.73;;;;;;;12.40;90.24;100001.94;4979454;28;20038;-81
2022/09/25 00:34:27;;;;;;;;;;;;;;;12.15;91.58;100006.75;4997175;28;20498;-80
2022/09/25 00:36:52;;;;;;;4.78;1.52;;;;;;;12.11;92.45;100000.41;4996851;28;19909;-80
2022/09/25 00:39:17;;;;;;;5.90;1.73;;;;;;;12.14;92.42;100004.38;4996936;28;20053;-83
2022/09/25 00:41:43;;;;;;;6.70;1.65;;;;;;;12.23;92.42;100000.31;4997042;28;20042;-80
2022/09/25 00:44:42;;;;;;;4.95;1.10;;;;;;;12.24;92.41;100001.91;4996349;28;20030;-81
2022/09/25 00:47:11;;;;;;;6.00;1.55;;;;;;;12.00;93.58;100004.75;4997152;28;20026;-81
2022/09/25 00:49:37;;;;;;;7.00;2.15;;;;;;;12.22;92.89;100006.94;4996695;28;20113;-81
2022/09/25 00:52:09;;;;;;;7.28;1.27;;;;;;;12.31;92.61;100004.84;4996442;28;20128;-81
2022/09/25 00:54:44;;;;;;;3.03;1.30;;;;;;;12.07;94.09;99999.47;4996721;28;20077;-80
2022/09/25 00:57:14;;;;;;;7.15;1.38;;;;;;;11.98;95.18;99996.13;4978959;28;20109;-80
2022/09/25 00:59:43;;;;;;;3.70;1.67;;;;;;;11.94;95.49;100004.22;4996649;28;20026;-80
2022/09/25 01:02:15;;;;;;;6.40;1.67;;;;;;;12.11;96.23;100010.53;4978864;28;20505;-81
2022/09/25 01:04:44;;;;;;;4.35;1.38;;;;;;;11.95;97.14;100021.38;4996382;28;20033;-82
2022/09/25 01:07:11;;;;;;;5.57;1.73;;;;;;;11.83;98.74;100013.22;4996397;28;20109;-81
2022/09/25 01:09:37;;;;;;;4.43;2.38;;;;;;;12.19;97.79;100010.34;4996416;28;20077;-80
2022/09/25 01:12:03;;;;;;;6.88;2.58;;;;;;;11.94;98.72;100014.34;4978401;28;20030;-80
2022/09/25 01:14:32;;;;;;;4.63;1.98;;;;;;;12.11;97.57;100011.31;4996010;28;20034;-81
2022/09/25 01:17:14;;;;;;;6.88;2.22;;;;;;;11.98;97.68;100015.22;4996238;28;20119;-80
2022/09/25 01:19:53;;;;;;;3.33;1.48;;;;;;;11.99;98.10;100011.34;4996075;28;20022;-80
2022/09/25 01:22:41;;;;;;;9.13;2.33;;;;;;;11.93;96.82;100015.47;4996031;28;20033;-80
2022/09/25 01:25:30;;;;;;;6.03;2.05;;;;;;;11.84;97.53;100015.59;4995910;28;20030;-80
2022/09/25 01:28:17;;;;;;;6.18;1.77;;;;;;;11.77;98.21;100017.31;4996103;28;20029;-80
2022/09/25 01:30:49;;;;;;;3.50;1.67;;;;;;;11.74;98.95;100016.81;4995728;28;20029;-80
2022/09/25 01:33:29;;;;;;;3.13;1.38;;;;;;;11.80;98.65;100009.25;4978226;28;20030;-80
2022/09/25 01:36:01;;;;;;;4.38;1.85;;;;;;;11.83;97.61;100013.22;4995527;28;20026;-80
2022/09/25 01:38:45;;;;;;;5.18;1.60;;;;;;;11.99;96.99;100014.88;4995593;28;20124;-81
2022/09/25 01:41:21;;;;;;;8.52;2.33;;;;;;;11.91;97.41;100015.00;4995794;28;20031;-80
2022/09/25 01:44:05;;;;;;;3.55;1.55;;;;;;;11.77;97.05;100020.03;4995500;28;20054;-81
2022/09/25 01:46:35;;;;;;;4.35;1.40;;;;;;;11.71;97.68;100028.44;4995702;28;20101;-81
2022/09/25 01:49:08;;;;;;;4.40;1.60;;;;;;;11.75;97.65;100029.31;4977794;28;20348;-81
2022/09/25 01:51:42;;;;;;;5.82;1.35;;;;;;;11.67;98.17;100033.00;4995463;28;20026;-81
2022/09/25 01:54:13;;;;;;;5.22;1.98;;;;;;;11.98;96.60;100026.13;4995141;28;20026;-81
2022/09/25 01:56:56;;;;;;;4.35;1.38;;;;;;;11.77;95.68;100028.22;4961886;28;20420;-81
2022/09/25 01:59:32;;;;;;;5.65;1.45;;;;;;;11.62;96.31;100025.06;4995417;28;20037;-81
2022/09/25 02:02:00;;;;;;;4.75;1.50;;;;;;;11.64;95.74;100022.78;4995124;28;20122;-81
2022/09/25 02:04:52;;;;;;;3.47;1.17;;;;;;;11.58;96.02;100021.41;4995237;28;20053;-80
2022/09/25 02:07:22;;;;;;;4.97;1.05;;;;;;;11.85;94.31;100021.84;4995310;28;20093;-80
2022/09/25 02:09:56;;;;;;;6.20;1.38;;;;;;;11.81;93.92;100026.41;4994968;28;20037;-80
2022/09/25 02:12:33;;;;;;;6.13;1.55;;;;;;;11.83;93.53;100018.66;4995454;28;20101;-80
2022/09/25 02:15:08;;;;;;;5.60;1.35;;;;;;;11.92;93.24;100019.31;4995274;28;20037;-80
2022/09/25 02:20:32;;;;;;;4.90;1.10;;;;;;;11.64;94.63;100014.59;4995081;28;20508;-80
2022/09/25 02:23:07;;;;;;;2.70;1.20;;;;;;;11.90;92.64;100018.88;4995335;28;20026;-81
2022/09/25 02:26:04;;;;;;;4.30;1.40;;;;;;;12.05;91.89;100009.94;4995109;28;20026;-80
2022/09/25 02:28:32;;;;;;;8.52;1.58;;;;;;;12.06;91.85;100017.00;4976815;28;20076;-79
2022/09/25 02:31:02;;;;;;;4.72;0.90;;;;;;;12.01;91.41;100014.53;4994514;28;20041;-80
2022/09/25 02:33:28;;;;;;;6.47;1.10;;;;;;;12.01;91.43;100019.97;4993260;28;20025;-80
2022/09/25 02:35:53;;;;;;;4.15;0.98;;;;;;;11.79;92.76;100023.25;4994648;28;20026;-81
2022/09/25 02:38:19;;;;;;;3.43;1.50;;;;;;;11.70;93.71;100026.06;4994988;28;20057;-79
2022/09/25 02:40:53;;;;;;;5.47;1.00;;;;;;;11.59;94.51;100019.47;4994329;28;20525;-81
2022/09/25 02:43:45;;;;;;;2.33;0.73;;;;;;;11.55;95.11;100024.81;4960851;28;20045;-81
2022/09/25 02:46:37;;;;;;;3.90;0.93;;;;;;;11.57;94.66;100030.72;4994378;28;20018;-81
2022/09/25 02:49:21;;;;;;;5.25;1.10;;;;;;;11.51;95.05;100025.84;4994554;28;20085;-81
2022/09/25 02:52:04;;;;;;;5.03;1.42;;;;;;;11.49;95.65;100026.19;4993641;28;20498;-81
2022/09/25 02:54:37;;;;;;;4.05;1.23;;;;;;;11.47;96.48;100022.22;4994408;28;20038;-80
2022/09/25 02:57:12;;;;;;;4.85;0.95;;;;;;;11.44;97.30;100023.72;4994190;28;20471;-79
2022/09/25 02:59:46;;;;;;;5.15;1.27;;;;;;;11.47;98.80;100027.69;4976598;28;20509;-79
2022/09/25 03:02:13;;;;;;;4.68;1.30;;;;;;;11.52;98.29;100024.72;4994241;28;20030;-77
2022/09/25 03:04:40;;;;;;;4.80;1.45;;;;;;;11.37;99.47;100023.47;4994046;28;20022;-80
2022/09/25 03:07:06;;;;;;;4.55;1.10;;;;;;;11.22;100.00;100021.44;4993676;28;20113;-81
2022/09/25 03:09:35;;;;;;;3.22;1.15;;;;;;;11.15;100.00;100027.47;4992703;28;20065;-80
2022/09/25 03:12:03;;;;;;;5.28;1.15;;;;;;;11.06;100.00;100024.84;4993910;28;20030;-80
2022/09/25 03:14:29;;;;;;;4.45;1.40;;;;;;;11.01;100.00;100032.44;4976474;28;20109;-80
2022/09/25 03:16:58;;;;;;;4.90;1.25;;;;;;;10.92;100.00;100029.03;4994084;28;20098;-80
2022/09/25 03:19:27;;;;;;;4.82;1.38;;;;;;;10.91;100.00;100025.50;4994186;28;20120;-82
2022/09/25 03:21:53;;;;;;;3.33;1.50;;;;;;;10.85;100.00;100026.88;4976157;28;20030;-82
2022/09/25 03:24:18;;;;;;;3.50;1.25;;;;;;;10.93;100.00;100030.63;4993604;28;20047;-82
2022/09/25 03:26:44;;;;;;;6.25;1.73;;;;;;;10.92;100.00;100029.84;4993622;28;20228;-82
2022/09/25 03:29:11;;;;;;;5.90;1.40;;;;;;;10.86;100.00;100036.63;4993687;28;20031;-80
2022/09/25 03:31:37;;;;;;;5.47;1.30;;;;;;;10.87;100.00;100027.31;4976311;28;20061;-83
2022/09/25 03:34:03;;;;;;;;;;;;;;;10.87;100.00;100027.31;4994066;28;20026;-83
2022/09/25 03:36:29;;;;;;;3.83;1.23;;;;;;;11.01;100.00;100016.91;4993499;28;19917;-82
2022/09/25 03:38:57;;;;;;;4.05;1.50;;;;;;;10.89;100.00;100019.59;4975860;28;20045;-82
2022/09/25 03:41:25;;;;;;;11.93;1.80;;;;;;;10.83;100.00;100018.25;4993693;28;20038;-82
2022/09/25 03:43:52;;;;;;;5.32;1.52;;;;;;;10.85;100.00;100024.94;4993625;28;20439;-82
2022/09/25 03:46:23;;;;;;;3.83;1.42;;;;;;;10.81;100.00;100023.25;4993836;28;20030;-82
2022/09/25 03:48:49;;;;;;;4.68;1.25;;;;;;;10.81;100.00;100024.03;4975995;28;20027;-81
2022/09/25 03:51:15;;;;;;;4.10;1.23;;;;;;;10.78;100.00;100023.91;4993504;28;20022;-80
2022/09/25 03:53:40;;;;;;;5.72;1.48;;;;;;;10.75;100.00;100019.13;4993754;28;20393;-81
2022/09/25 03:56:09;;;;;;;5.57;2.17;;;;;;;10.85;100.00;100024.16;4993277;28;20367;-80
2022/09/25 03:58:35;;;;;;;7.32;1.50;;;;;;;10.98;100.00;100023.03;4993103;28;20022;-80
2022/09/25 04:01:00;;;;;;;5.70;1.50;;;;;;;10.94;100.00;100026.78;4993141;28;20053;-80
2022/09/25 04:03:28;;;;;;;5.25;1.45;;;;;;;10.90;100.00;100018.47;4992857;28;20031;-79
2022/09/25 04:05:55;;;;;;;7.53;1.98;;;;;;;10.83;100.00;100023.69;4992901;28;20053;-79
2022/09/25 04:08:24;;;;;;;3.70;1.50;;;;;;;10.81;100.00;100013.13;4992994;28;20034;-79
2022/09/25 04:10:50;;;;;;;4.82;1.67;;;;;;;10.78;100.00;100015.75;4992953;28;20085;-78
2022/09/25 04:13:15;;;;;;;7.70;1.52;;;;;;;10.73;100.00;100018.66;4993100;28;20030;-78
2022/09/25 04:15:41;;;;;;;3.38;1.30;;;;;;;10.68;100.00;100008.78;4992795;28;20042;-79
2022/09/25 04:18:08;;;;;;;3.20;1.08;;;;;;;10.67;100.00;100012.66;4975231;28;20100;-78
2022/09/25 04:20:34;;;;;;;2.50;0.90;;;;;;;10.65;100.00;100008.69;4974371;28;20426;-79
2022/09/25 04:23:00;;;;;;;5.28;1.85;;;;;;;11.06;100.00;100008.50;4992676;28;20026;-79
2022/09/25 04:25:26;;;;;;;3.90;1.30;;;;;;;11.19;98.03;100011.22;4992464;28;20030;-79
2022/09/25 04:27:57;;;;;;;2.78;1.13;;;;;;;11.11;97.51;100007.50;4992951;28;20027;-79
2022/09/25 04:30:25;;;;;;;3.22;1.40;;;;;;;11.12;97.92;100009.06;4992832;28;20049;-78
2022/09/25 04:35:35;;;;;;;10.23;2.17;;;;;;;11.31;96.75;100014.75;4992767;28;20033;-78
2022/09/25 04:38:00;;;;;;;5.00;1.30;;;;;;;11.25;96.95;100012.56;4974958;28;20034;-78
2022/09/25 04:40:27;;;;;;;6.83;1.00;;;;;;;11.28;96.52;100014.63;4992447;28;20042;-78
2022/09/25 04:43:00;;;;;;;5.50;2.35;;;;;;;11.26;96.58;100016.91;4993008;28;20297;-78
2022/09/25 04:45:27;;;;;;;2.88;0.90;;;;;;;11.18;95.77;100020.53;4993153;28;20030;-78
2022/09/25 04:47:53;;;;;;;4.10;1.00;;;;;;;11.27;95.90;100019.31;4992922;28;20093;-79
2022/09/25 04:50:20;;;;;;;4.72;1.00;;;;;;;11.32;95.43;100021.00;4992617;28;20031;-78
2022/09/25 04:52:45;;;;;;;2.95;0.90;;;;;;;11.27;96.20;100015.78;4992537;28;20035;-78
2022/09/25 04:55:11;;;;;;;2.63;0.80;;;;;;;11.24;95.96;100019.16;4992477;28;20037;-77
2022/09/25 04:57:38;;;;;;;3.70;0.70;;;;;;;10.99;96.11;100024.63;4974904;28;20626;-78
2022/09/25 05:00:05;;;;;;;2.97;1.20;;;;;;;10.80;98.38;100017.00;4992494;28;20033;-78
2022/09/25 05:02:31;;;;;;;2.50;1.23;;;;;;;10.75;99.05;100010.94;4992583;28;20018;-78
2022/09/25 05:04:57;;;;;;;3.58;1.10;;;;;;;10.69;99.84;100018.56;4992551;28;20033;-78
2022/09/25 05:07:22;;;;;;;4.57;1.40;;;;;;;10.67;100.00;100006.41;4992370;28;20030;-78
2022/09/25 05:09:47;;;;;;;7.10;1.70;;;;;;;10.61;100.00;100007.78;4992439;28;20273;-77
2022/09/25 05:12:13;;;;;;;8.23;1.53;;;;;;;10.59;100.00;100010.84;4992544;28;20049;-79
2022/09/25 05:14:41;;;;;;;5.38;1.50;;;;;;;10.59;100.00;100005.41;4994812;28;20276;-79
2022/09/25 05:17:07;;;;;;;5.72;1.70;;;;;;;10.51;100.00;100015.22;4996397;28;20026;-79
2022/09/25 05:19:32;;;;;;;;;;;;;;;10.49;100.00;100020.22;4979594;28;20038;-79
2022/09/25 05:21:58;;;;;;;6.10;1.50;;;;;;;10.44;100.00;100023.16;4996245;28;19910;-79
2022/09/25 05:24:23;;;;;;;4.75;1.40;;;;;;;10.41;100.00;100018.38;4995732;28;20033;-78
2022/09/25 05:26:49;;;;;;;6.53;1.60;;;;;;;10.40;100.00;100019.50;4995502;28;20034;-79
2022/09/25 05:29:14;;;;;;;3.73;1.30;;;;;;;10.37;100.00;100017.44;4995904;28;20038;-78
2022/09/25 05:31:41;;;;;;;2.63;1.20;;;;;;;10.33;100.00;100021.97;4995552;28;20274;-79
2022/09/25 05:34:07;;;;;;;4.93;1.30;;;;;;;10.32;100.00;100016.88;4995916;28;20026;-79
2022/09/25 05:36:33;;;;;;;4.72;1.83;;;;;;;10.27;100.00;100015.16;4978312;28;20128;-79
2022/09/25 05:38:59;;;;;;;6.93;1.40;;;;;;;10.19;100.00;100013.28;4995779;28;20475;-79
2022/09/25 05:41:25;;;;;;;6.60;1.50;;;;;;;10.17;100.00;100012.81;4995926;28;20030;-78
2022/09/25 05:43:50;;;;;;;3.83;1.52;;;;;;;10.12;100.00;100010.31;4978126;28;20033;-79
2022/09/25 05:46:16;;;;;;;7.80;1.70;;;;;;;10.07;100.00;100016.72;4977987;28;20054;-79
2022/09/25 05:48:42;;;;;;;4.07;1.77;;;;;;;10.04;100.00;100016.59;4995769;28;20447;-79
2022/09/25 05:51:08;;;;;;;6.57;1.52;;;;;;;10.12;100.00;100018.47;4995803;28;20030;-79
2022/09/25 05:53:33;;;;;;;4.40;1.88;;;;;;;10.20;100.00;100020.31;4995426;28;20026;-79
2022/09/25 05:56:01;;;;;;;5.78;1.50;;;;;;;10.10;100.00;100016.09;4977786;28;20030;-79
2022/09/25 05:58:30;;;;;;;5.93;1.58;;;;;;;10.11;100.00;100017.69;4995410;28;20486;-79
2022/09/25 06:00:59;;;;;;;5.25;1.80;;;;;;;10.24;100.00;100023.97;4995290;28;20038;-79
2022/09/25 06:03:28;;;;;;;4.28;1.85;;;;;;;10.11;100.00;100014.16;4995254;28;20022;-79
2022/09/25 06:05:55;;;;;;;5.20;1.83;;;;;;;10.05;100.00;100026.34;4994487;28;20108;-79
2022/09/25 06:08:21;;;;;;;7.20;2.08;;;;;;;10.10;100.00;100026.19;4977669;28;20117;-79
2022/09/25 06:10:52;;;;;;;4.63;1.83;;;;;;;10.12;100.00;100019.25;4994867;28;20467;-79
2022/09/25 06:13:17;;;;;;;4.95;1.67;;;;;;;10.14;100.00;100018.94;4995136;28;20026;-79
2022/09/25 06:15:43;;;;;;;4.33;1.90;;;;;;;10.07;100.00;100021.38;4994764;28;20474;-79
2022/09/25 06:18:08;;;;;;;6.53;2.23;;;;;;;10.08;100.00;100023.00;4995239;28;20261;-79
2022/09/25 06:20:35;;;;;;;6.30;1.80;;;;;;;10.09;100.00;100025.38;4995299;28;20033;-79
2022/09/25 06:23:00;;;;;;;4.88;1.60;;;;;;;10.19;100.00;100026.88;4977474;28;20034;-80
2022/09/25 06:25:29;;;;;;;3.92;1.50;;;;;;;10.15;100.00;100029.47;4993759;28;20022;-80
2022/09/25 06:27:56;;;;;;;5.28;2.08;;;;;;;10.16;100.00;100030.28;4994496;28;20117;-79
2022/09/25 06:30:26;;;;;;;6.65;2.35;;;;;;;10.07;100.00;100032.25;4994692;28;20558;-79
2022/09/25 06:32:58;;;;;;;4.03;1.35;;;;;;;10.36;100.00;100034.13;4977491;28;20113;-79
2022/09/25 06:35:24;;;;;;;8.70;2.15;;;;;;;10.13;100.00;100033.66;4994655;28;20030;-79
2022/09/25 06:37:50;;;;;;;6.40;1.90;;;;;;;10.14;100.00;100035.25;4976973;28;20018;-79
2022/09/25 06:40:15;;;;;;;7.65;1.98;;;;;;;10.06;100.00;100042.34;4994617;28;20046;-79
2022/09/25 06:42:43;;;;;;;7.68;1.80;;;;;;;10.13;100.00;100037.19;4994712;28;20117;-79
2022/09/25 06:45:10;;;;;;;7.65;2.22;;;;;;;10.14;100.00;100038.78;4994769;28;20137;-79
2022/09/25 06:47:35;;;;;;;6.73;2.10;;;;;;;10.25;100.00;100041.91;4994399;28;20113;-79
2022/09/25 06:50:02;;;;;;;6.22;1.98;;;;;;;10.26;100.00;100029.91;4994568;28;20054;-79
2022/09/25 06:52:28;;;;;;;7.35;1.85;;;;;;;10.31;100.00;100037.84;4994651;28;20034;-82
2022/09/25 06:54:53;;;;;;;5.63;2.07;;;;;;;10.29;100.00;100031.16;4994438;28;20073;-81
2022/09/25 06:57:19;;;;;;;6.43;1.70;;;;;;;10.30;100.00;100046.34;4994282;28;20019;-81
2022/09/25 06:59:46;;;;;;;14.15;2.45;;;;;;;10.37;100.00;100041.94;4994349;28;20471;-81
2022/09/25 07:04:55;;;;;;;5.60;1.80;;;;;;;10.53;100.00;100048.34;4994187;28;20117;-83
2022/09/25 07:07:23;;;;;;;9.40;2.07;;;;;;;10.65;99.95;100044.09;4994003;28;20117;-82
2022/09/25 07:09:48;;;;;;;4.78;1.80;;;;;;;10.81;99.06;100045.03;4993974;28;20314;-82
2022/09/25 07:12:20;;;;;;;5.13;2.80;;;;;;;10.82;98.52;100049.34;4976706;28;20026;-82
2022/09/25 07:14:46;;;;;;;10.90;2.00;;;;;;;10.92;98.11;100048.09;4994197;28;20030;-82
2022/09/25 07:17:13;;;;;;;5.37;1.77;;;;;;;10.98;97.74;100044.81;4976359;28;20395;-82
2022/09/25 07:19:39;;;;;;;4.85;1.95;;;;;;;11.05;97.33;100047.78;4993563;28;20273;-82
2022/09/25 07:22:04;;;;;;;;;;;;;;;10.95;96.63;100050.97;4976733;28;20058;-83
2022/09/25 07:24:29;;;;;;;3.90;1.73;;;;;;;11.14;96.12;100048.47;4976108;28;19920;-82
2022/09/25 07:26:55;;;;;;;5.07;1.80;;;;;;;11.18;95.81;100053.25;4993448;28;20045;-82
2022/09/25 07:29:20;;;;;;;4.88;1.63;;;;;;;11.26;95.72;100055.06;4993383;28;20041;-82
2022/09/25 07:31:45;;;;;;;4.37;1.50;;;;;;;11.40;94.14;100052.78;4993907;28;20531;-83
2022/09/25 07:34:11;;;;;;;7.80;1.43;;;;;;;11.50;93.20;100051.53;4976092;28;20300;-80
2022/09/25 07:36:41;;;;;;;8.77;1.90;;;;;;;11.64;94.01;100055.50;4993341;28;20034;-82
2022/09/25 07:39:07;;;;;;;3.80;1.35;;;;;;;11.67;93.04;100063.00;4975719;28;20415;-81
2022/09/25 07:41:33;;;;;;;;;;;;;;;11.81;91.70;100064.59;4994168;28;20030;-83
2022/09/25 07:43:59;;;;;;;7.13;1.67;;;;;;;11.70;91.49;100065.03;4993310;28;20428;-82
2022/09/25 07:46:26;;;;;;;3.92;1.70;;;;;;;11.63;91.59;100053.91;4993228;28;20026;-82
2022/09/25 07:48:52;;;;;;;6.45;1.90;;;;;;;11.80;91.96;100065.75;4975939;28;20392;-82
2022/09/25 07:51:25;;;;;;;2.92;1.20;;;;;;;11.81;89.23;100056.41;4975811;28;20025;-83
2022/09/25 07:53:50;;;;;;;7.60;1.92;;;;;;;11.88;89.57;100067.53;4975834;28;20041;-82
2022/09/25 07:56:19;;;;;;;5.25;1.98;;;;;;;11.99;90.25;100066.72;4993577;28;20022;-82
2022/09/25 07:58:44;;;;;;;4.72;1.65;;;;;;;12.14;89.67;100065.19;4993530;28;20034;-81
2022/09/25 08:01:11;;;;;;;4.10;1.40;;;;;;;12.25;88.18;100049.91;4993078;28;20030;-81
2022/09/25 08:03:37;;;;;;;3.90;1.10;;;;;;;12.59;87.42;100056.69;4992777;28;20534;-80
2022/09/25 08:06:05;;;;;;;3.05;1.00;;;;;;;12.78;86.18;100049.78;4993069;28;20161;-81
2022/09/25 08:08:33;;;;;;;4.00;1.15;;;;;;;12.57;84.83;100058.97;4992833;28;20058;-83
2022/09/25 08:11:05;;;;;;;3.05;1.27;;;;;;;12.44;85.65;100053.94;4975508;28;20089;-83
2022/09/25 08:13:32;;;;;;;3.20;1.08;;;;;;;12.83;84.53;100063.19;4971038;28;20030;-82
2022/09/25 08:16:22;;;;;;;3.83;1.00;;;;;;;12.64;83.83;100061.13;4993141;28;20061;-83
2022/09/25 08:18:48;;;;;;;5.10;1.00;;;;;;;12.84;82.84;100059.31;4992957;28;20498;-82
2022/09/25 08:21:16;;;;;;;7.95;1.60;;;;;;;12.79;83.59;100065.03;4993166;28;20034;-83
2022/09/25 08:23:48;;;;;;;3.58;0.90;;;;;;;12.86;83.75;100060.53;4992080;28;20100;-79
2022/09/25 08:26:22;;;;;;;1.88;0.73;;;;;;;12.97;82.10;100060.81;4992577;28;20491;-83
2022/09/25 08:28:50;;;;;;;2.70;0.95;;;;;;;12.82;81.89;100059.66;4992666;28;20058;-83
2022/09/25 08:31:20;;;;;;;4.00;0.95;;;;;;;13.13;80.70;100050.69;4993155;28;20026;-83
2022/09/25 08:33:49;;;;;;;4.40;1.88;;;;;;;13.19;80.13;100057.50;4990971;28;20044;-82
2022/09/25 08:36:15;;;;;;;6.05;1.05;;;;;;;13.19;79.17;100056.69;4992628;28;20026;-80
2022/09/25 08:38:41;;;;;;;2.83;0.68;;;;;;;13.05;79.92;100061.78;4992634;28;20112;-83
2022/09/25 08:41:14;;;;;;;5.78;1.05;;;;;;;12.95;79.28;100057.66;4992783;28;20113;-82
2022/09/25 08:43:59;;;;;;;3.55;0.80;;;;;;;13.22;80.42;100055.97;4975256;28;20042;-82
2022/09/25 08:49:32;;;;;;;1.83;0.63;;;;;;;13.26;79.39;100065.06;4994922;28;20056;-81
2022/09/25 08:52:01;;;;;;;4.47;0.98;;;;;;;12.91;78.59;100060.25;4996383;28;20026;-81
2022/09/25 08:54:31;;;;;;;1.50;0.57;;;;;;;12.71;78.84;100065.97;4996455;28;20037;-82
2022/09/25 08:57:10;;;;;;;4.00;0.80;;;;;;;12.68;79.27;100064.75;4996420;28;20105;-81
2022/09/25 08:59:41;;;;;;;2.88;0.95;;;;;;;12.70;79.23;100058.91;4996430;28;20088;-81
2022/09/25 09:02:33;;;;;;;2.30;0.70;;;;;;;13.31;77.55;100062.09;4996122;28;20494;-81
2022/09/25 09:05:00;;;;;;;2.90;0.70;;;;;;;13.01;78.50;100063.63;4987232;28;20040;-84
2022/09/25 09:07:35;;;;;;;5.40;0.68;;;;;;;12.91;77.95;100059.47;4996901;28;20022;-82
2022/09/25 09:10:20;;;;;;;4.40;0.75;;;;;;;13.03;77.09;100067.59;4978772;28;20022;-82
2022/09/25 09:12:55;;;;;;;2.08;0.68;;;;;;;12.94;76.61;100067.78;4996093;28;20026;-85
2022/09/25 09:15:20;;;;;;;0.65;0.40;;;;;;;12.98;76.91;100062.41;4974120;28;20030;-84
2022/09/25 09:17:45;;;;;;;6.47;1.53;;;;;;;12.79;75.00;100062.31;4995929;28;20031;-83
2022/09/25 09:20:17;;;;;;;4.57;1.10;;;;;;;12.74;75.67;100068.78;4995726;28;20027;-83
2022/09/25 09:22:50;;;;;;;2.80;0.47;;;;;;;12.84;77.22;100059.31;4995662;28;20345;-83
2022/09/25 09:25:30;;;;;;;1.42;0.80;;;;;;;13.13;74.64;100069.03;4996100;28;20046;-82
2022/09/25 09:28:26;;;;;;;4.50;0.85;;;;;;;12.98;74.91;100051.47;4995882;28;20109;-85
2022/09/25 09:31:13;;;;;;;3.05;1.05;;;;;;;13.09;74.59;100052.50;4995566;28;20058;-82
2022/09/25 09:33:56;;;;;;;1.58;0.70;;;;;;;13.37;73.47;100052.44;4995757;28;20468;-84
2022/09/25 09:36:41;;;;;;;8.35;0.90;;;;;;;13.50;72.24;100044.94;4996017;28;20069;-85
2022/09/25 09:39:17;;;;;;;3.53;0.88;;;;;;;13.37;71.68;100046.97;4977769;28;20046;-86
2022/09/25 09:42:05;;;;;;;1.50;0.63;;;;;;;13.17;71.44;100053.50;4978263;28;20034;-86
2022/09/25 09:44:59;;;;;;;4.78;0.80;;;;;;;13.35;71.07;100052.00;4992577;28;20112;-85
2022/09/25 09:47:38;;;;;;;1.85;0.60;;;;;;;13.51;70.73;100052.78;4956627;28;20045;-85
2022/09/25 09:50:20;;;;;;;2.20;0.70;;;;;;;13.57;69.83;100047.81;4995463;28;20026;-84
2022/09/25 09:52:50;;;;;;;2.35;1.45;;;;;;;13.68;69.98;100043.41;4977888;28;20113;-85
2022/09/25 09:55:45;;;;;;;1.48;0.60;;;;;;;13.98;69.01;100051.88;4995291;28;20030;-85
2022/09/25 09:58:34;;;;;;;1.65;0.63;;;;;;;13.88;67.88;100046.94;4995467;28;20106;-86
2022/09/25 10:01:00;;;;;;;4.65;1.13;;;;;;;13.97;66.99;100042.06;4977444;28;20093;-84
2022/09/25 10:03:29;;;;;;;1.73;0.65;;;;;;;14.57;68.36;100037.03;4995484;28;20030;-84
2022/09/25 10:06:01;;;;;;;3.25;0.73;;;;;;;14.50;65.19;100036.09;4977984;28;20046;-84
2022/09/25 10:08:28;;;;;;;1.88;0.73;;;;;;;14.38;64.55;100046.03;4995030;28;20027;-86
2022/09/25 10:10:54;;;;;;;2.65;1.13;;;;;;;14.48;63.78;100038.44;4995299;28;20022;-83
2022/09/25 10:13:22;;;;;;;2.75;0.70;;;;;;;14.68;64.00;100038.03;4994867;28;20445;-84
2022/09/25 10:16:10;;;;;;;1.80;1.00;;;;;;;14.98;65.46;100038.16;4995017;28;20061;-83
2022/09/25 10:18:48;;;;;;;4.22;1.00;;;;;;;14.77;65.24;100039.72;4995178;28;20102;-85
2022/09/25 10:21:22;;;;;;;1.63;0.57;;;;;;;14.59;65.52;100033.91;4995152;28;20058;-85
2022/09/25 10:23:51;;;;;;;3.13;0.73;;;;;;;14.08;67.23;100032.13;4995018;28;20034;-85
2022/09/25 10:26:30;;;;;;;3.30;0.80;;;;;;;14.01;66.87;100036.66;4977091;28;20117;-84
2022/09/25 10:29:01;;;;;;;3.30;0.98;;;;;;;13.88;66.38;100035.22;4994824;28;20038;-84
2022/09/25 10:31:35;;;;;;;1.08;0.73;;;;;;;14.74;66.98;100031.06;4994579;28;20033;-84
2022/09/25 10:34:04;;;;;;;3.55;0.85;;;;;;;14.72;65.02;100027.13;4995253;28;20030;-84
2022/09/25 10:36:34;;;;;;;2.97;0.80;;;;;;;14.60;63.46;100027.28;4994807;28;20022;-84
2022/09/25 10:39:02;;;;;;;2.45;1.00;;;;;;;14.47;63.73;100034.09;4976960;28;20108;-84
2022/09/25 10:41:28;;;;;;;3.08;0.68;;;;;;;14.22;63.47;100041.78;4994349;28;20467;-85
2022/09/25 10:43:59;;;;;;;2.35;0.65;;;;;;;14.29;63.10;100031.00;4994319;28;20121;-84
2022/09/25 10:52:14;;;;;;;1.27;0.65;;;;;;;14.39;61.69;100036.66;4995520;28;20037;-84
2022/09/25 10:54:43;;;;;;;1.30;0.65;;;;;;;14.75;61.54;100037.34;4994591;28;20055;-82
2022/09/25 10:57:33;;;;;;;2.85;0.73;;;;;;;15.15;61.51;100025.13;4994161;28;20493;-83
2022/09/25 11:00:01;;;;;;;3.30;0.75;;;;;;;15.35;60.60;100032.09;4994207;28;20030;-84
2022/09/25 11:02:38;;;;;;;2.33;0.60;;;;;;;15.45;60.42;100023.25;4976538;28;20491;-84
2022/09/25 11:05:07;;;;;;;3.80;1.08;;;;;;;15.08;60.91;100020.28;4993945;28;20062;-83
2022/09/25 11:07:33;;;;;;;1.58;0.50;;;;;;;15.15;61.01;100017.69;4994534;28;20038;-85
2022/09/25 11:09:59;;;;;;;7.72;1.40;;;;;;;14.83;60.29;100021.84;4976302;28;20026;-84
2022/09/25 11:12:28;;;;;;;;;;;;;;;14.83;60.83;100019.09;4992366;28;20479;-85
2022/09/25 11:15:01;;;;;;;2.65;0.60;;;;;;;14.57;59.67;100026.06;4976153;28;19909;-85
2022/09/25 11:17:36;;;;;;;1.25;0.57;;;;;;;14.60;60.79;100022.59;4993588;28;20019;-85
2022/09/25 11:20:26;;;;;;;2.23;0.60;;;;;;;14.85;61.16;100030.47;4993479;28;20108;-84
2022/09/25 11:23:15;;;;;;;1.10;0.40;;;;;;;15.01;58.98;100014.69;4993499;28;20026;-84
2022/09/25 11:25:46;;;;;;;1.38;0.50;;;;;;;15.60;59.59;100016.00;4993710;28;20022;-84
2022/09/25 11:28:27;;;;;;;1.98;0.50;;;;;;;16.17;54.08;100011.28;4975794;28;20089;-83
2022/09/25 11:31:01;;;;;;;0.65;0.40;;;;;;;16.06;55.45;100011.13;4993346;28;20026;-86
2022/09/25 11:33:35;;;;;;;1.50;0.80;;;;;;;16.14;55.24;100006.53;4976164;28;20038;-84
2022/09/25 11:36:09;;;;;;;2.10;0.80;;;;;;;15.82;54.90;100000.63;4975782;28;20027;-85
2022/09/25 11:42:14;;;;;;;5.68;0.80;;;;;;;16.43;52.50;99994.66;4992496;28;20414;-84
2022/09/25 11:44:56;;;;;;;1.27;0.57;;;;;;;16.71;50.85;99999.69;4989435;28;20038;-86
2022/09/25 11:47:41;;;;;;;0.65;0.40;;;;;;;16.73;51.64;99999.31;4992313;28;20046;-84
2022/09/25 11:50:15;;;;;;;4.25;0.60;;;;;;;15.85;53.82;99992.44;4992640;28;20232;-86
2022/09/25 11:52:47;;;;;;;1.42;0.60;;;;;;;15.76;55.08;100002.09;4992419;28;20026;-84
2022/09/25 11:55:33;;;;;;;1.50;0.77;;;;;;;15.16;56.29;100008.28;4992398;28;20034;-84
2022/09/25 11:58:17;;;;;;;2.33;0.70;;;;;;;15.05;58.08;99997.13;4974767;28;20109;-84
2022/09/25 12:01:26;;;;;;;2.05;0.60;;;;;;;15.22;57.29;100006.81;4974792;28;20026;-86